• Join FlightAware (Why Join?)
  • Login
  • US Flag 
11:09AM EDT


 

Airport Tracker/Info


-or-


 

Live Flight TrackerFlight Track Log ✈ RPA3228 ✈ 22-Apr-2013 ✈ KDCA - KBTV

Flight Track Log - Related Links

Times and Time Zones

All times are in EDT time to prevent confusion due to time zone crossing. See the RPA3228 flight status page for this flight to view local times or setup timezone preferences in your user account.

Time Position Orientation Groundspeed Altitude Reporting Facility
EDT Latitude Longitude Course Direction KTS MPH feet Rate Location/Type
10:55AM 38.9000 -77.0833 81° East 195 224 2,400  Level Potomac TRACON
10:56AM 38.9500 -77.1167 333° Northwest 255 293 4,800 2,640 Climbing Potomac TRACON
10:57AM 39.0015 -76.5970 57° Northeast  Level FlightAware Approximate
10:57AM 39.0333 -77.1000 North 273 314 7,700  Level Potomac TRACON
10:58AM 39.0593 -76.4517 63° Northeast  Level FlightAware Approximate
10:59AM 39.1167 -76.3070 90° East  Level FlightAware Approximate
10:59AM 39.0769 -76.9125 73° East 273 314 12,400  Level Washington Center
11:00AM 39.1556 -76.1606 83° East  Level FlightAware Approximate
11:00AM 39.0908 -76.7925 81° East 304 350 15,200  Level Washington Center
11:01AM 39.1711 -75.9981 81° East  Level FlightAware Approximate
11:01AM 39.1025 -76.6642 83° East 336 387 17,900  Level Washington Center
11:02AM 39.1161 -76.5386 82° East 347 399 19,900 2,100 Climbing Washington Center
11:03AM 39.1294 -76.4078 82° East 362 417 22,200 1,500 Climbing Washington Center
11:04AM 39.1450 -76.2714 82° East 372 428 23,000 360 Climbing Washington Center
11:05AM 39.1644 -76.1297 80° East 385 443 23,000  Level Washington Center
11:06AM 39.1817 -75.9906 81° East 390 449 23,000  Level Washington Center
11:07AM 39.2131 -75.8567 73° East 390 449 23,000 600 Level Washington Center
11:08AM 39.2925 -75.7525 45° Northeast 384 442 24,200 1,380 Climbing Washington Center
11:09AM 39.3761 -75.6481 44° Northeast 398 458 25,800 1,380 Climbing Washington Center
11:10AM 39.4636 -75.5325 46° Northeast 419 482 27,000 1,140 Climbing Washington Center
11:11AM 39.5531 -75.4139 46° Northeast 438 504 28,100 1,080 Climbing Washington Center
11:12AM 39.6506 -75.2869 45° Northeast 466 536 29,200 1,080 Climbing Washington Center
11:13AM 39.7544 -75.1353 48° Northeast 498 573 30,300 1,080 Climbing Washington Center
11:14AM 39.8456 -75.0106 46° Northeast 520 598 31,400 1,200 Climbing Washington Center
11:16AM 39.9642 -74.8389 48° Northeast 537 618 33,000 720 Climbing New York Center
11:17AM 40.0494 -74.7192 47° Northeast 513 590 33,000  Level New York Center
11:18AM 40.1525 -74.5675 48° Northeast 513 590 33,000  Level New York Center
11:19AM 40.2439 -74.4500 44° Northeast 506 582 33,000  Level New York Center
11:20AM 40.3514 -74.3358 39° Northeast 494 568 33,000  Level New York Center
11:21AM 40.4592 -74.2217 39° Northeast 494 568 33,000  Level New York Center
11:23AM 40.6472 -73.8597 56° Northeast 473 544 33,000  Level Boston Center
11:24AM 40.7689 -73.7856 25° Northeast 463 533 33,000  Level Boston Center
11:25AM 40.8919 -73.7881 359° North 425 489 33,000  Level Boston Center
11:26AM 41.0169 -73.7936 358° North 430 495 33,000  Level Boston Center
11:27AM 41.1397 -73.7989 358° North 430 495 33,000  Level Boston Center
11:28AM 41.2647 -73.8042 358° North 440 506 33,000  Level Boston Center
11:29AM 41.3875 -73.8125 357° North 440 506 33,000  Level Boston Center
11:30AM 41.5128 -73.7931 North 440 506 33,000  Level Boston Center
11:31AM 41.6381 -73.7678 North 446 513 33,000  Level Boston Center
11:32AM 41.7614 -73.7425 North 446 513 33,000  Level Boston Center
11:33AM 41.8806 -73.7200 North 435 501 33,000  Level Boston Center
11:34AM 42.0017 -73.6944 North 435 501 33,000  Level Boston Center
11:35AM 42.1292 -73.6633 10° North 445 512 33,000 -960 Level Boston Center
11:36AM 42.2483 -73.6350 10° North 445 512 31,100 -1,860 Descending Boston Center
11:37AM 42.3589 -73.6203 North 422 486 29,300 -1,080 Descending Boston Center
11:38AM 42.4694 -73.5969 North 406 467 29,000 -180 Descending Boston Center
11:39AM 42.5761 -73.5736 North 401 461 29,000  Level Boston Center
11:40AM 42.6867 -73.5531 North 396 456 29,000  Level Boston Center
11:41AM 42.7953 -73.5294 North 391 450 29,000  Level Boston Center
11:42AM 42.8872 -73.5056 11° North 384 442 29,000 -360 Level Boston Center
11:43AM 42.9958 -73.4733 12° North 384 442 28,300 -1,560 Descending Boston Center
11:44AM 43.0964 -73.4125 24° Northeast 384 442 25,900 -2,160 Descending Boston Center
11:45AM 43.1992 -73.3544 22° Northeast 384 442 24,000 -960 Descending Boston Center
11:46AM 43.2953 -73.2986 23° Northeast 389 448 24,000 -840 Level Boston Center
11:47AM 43.3917 -73.2400 24° Northeast 379 436 22,400 -2,100 Descending Boston Center
11:48AM 43.5003 -73.2042 13° North 373 429 19,900 -2,340 Descending Boston Center
11:49AM 43.5983 -73.1969 North 358 412 17,800 -1,740 Descending Boston Center
11:50AM 43.6878 -73.1953 North 340 391 16,500 -1,680 Descending Boston Center
11:51AM 43.7775 -73.1906 North 323 372 14,500 -1,980 Descending Boston Center
11:52AM 43.8650 -73.1858 North 317 365 12,600 -1,860 Descending Boston Center
11:53AM 43.9506 -73.1811 North 306 352 10,800 -1,860 Descending Boston Center
11:54AM 44.0256 -73.1764 North 306 352 8,900 -1,980 Descending Boston Center
11:55AM 44.1047 -73.1744 North 295 339 6,900 -1,860 Descending Boston Center
11:56AM 44.1817 -73.1928 350° North 283 326 5,200 -1,380 Descending Boston Center
11:57AM 44.2378 -73.2253 337° Northwest 260 299 4,200 -1,080 Descending Boston Center
11:58AM 44.3022 -73.2639 337° Northwest 227 261 3,100 -600 Descending Boston Center
11:59AM 44.3603 -73.2994 336° Northwest 227 261 3,000 -360 Descending Boston Center
12:00PM 44.4228 -73.3006 359° North 221 254 2,400 -540 Descending Boston Center
12:01PM 44.4792 -73.2897 North 215 247 2,000 -420 Descending Boston Center